createdAt,value
2023-04-26T00:00:19.957Z,94.4182
2023-04-26T00:01:22.238Z,94.4972
2023-04-26T00:02:24.833Z,94.3871
2023-04-26T00:03:25.540Z,94.3171
2023-04-26T00:04:26.288Z,94.3813
2023-04-26T00:05:26.440Z,94.3657
2023-04-26T00:06:28.658Z,94.3702
2023-04-26T00:07:30.941Z,94.3921
2023-04-26T00:08:33.198Z,94.4167
2023-04-26T00:09:35.407Z,94.3963
2023-04-26T00:10:37.762Z,94.4043
2023-04-26T00:11:40.048Z,94.3776
2023-04-26T00:12:42.343Z,94.4972
2023-04-26T00:13:44.590Z,94.4726
2023-04-26T00:14:46.885Z,94.4771
2023-04-26T00:15:49.193Z,94.4320
2023-04-26T00:16:51.481Z,94.4881
2023-04-26T00:17:53.880Z,94.4377
2023-04-26T00:18:56.135Z,94.4302
2023-04-26T00:19:58.474Z,94.5460
2023-04-26T00:21:00.683Z,94.5082
2023-04-26T00:22:02.968Z,94.6253
2023-04-26T00:23:05.196Z,94.8463
2023-04-26T00:24:07.444Z,94.8183
2023-04-26T00:25:09.729Z,94.8580
2023-04-26T00:26:12.063Z,94.9349
2023-04-26T00:27:14.318Z,95.0347
2023-04-26T00:28:16.564Z,94.9919
2023-04-26T00:29:18.837Z,95.0658
2023-04-26T00:30:21.085Z,95.0961
2023-04-26T00:31:23.392Z,95.0636
2023-04-26T00:32:25.659Z,94.9345
2023-04-26T00:33:27.929Z,94.9886
2023-04-26T00:34:30.170Z,94.9855
2023-04-26T00:35:32.395Z,94.9555
2023-04-26T00:36:34.634Z,94.9341
2023-04-26T00:37:36.840Z,94.9538
2023-04-26T00:38:39.058Z,94.8887
2023-04-26T00:39:41.345Z,94.9163
2023-04-26T00:40:43.617Z,94.9765
2023-04-26T00:41:45.836Z,94.8819
2023-04-26T00:42:48.055Z,94.6773
2023-04-26T00:43:50.307Z,94.6871
2023-04-26T00:44:52.576Z,94.6475
2023-04-26T00:45:54.813Z,94.5367
2023-04-26T00:46:57.151Z,94.4631
2023-04-26T00:47:59.518Z,94.3427
2023-04-26T00:49:01.747Z,94.4016
2023-04-26T00:50:03.985Z,94.5129
2023-04-26T00:51:06.195Z,94.4173
2023-04-26T00:52:08.475Z,94.3782
2023-04-26T00:53:10.835Z,94.4316
2023-04-26T00:54:13.080Z,94.2234
2023-04-26T00:55:15.321Z,94.2198
2023-04-26T00:56:17.607Z,94.1350
2023-04-26T00:57:19.860Z,94.1934
2023-04-26T00:58:22.091Z,93.8744
2023-04-26T00:59:24.328Z,93.8156
2023-04-26T01:00:26.607Z,93.8368
2023-04-26T01:01:28.919Z,93.7823
2023-04-26T01:02:31.382Z,93.8058
2023-04-26T01:03:31.884Z,93.8170
2023-04-26T01:04:31.730Z,93.9060
2023-04-26T01:05:33.922Z,93.8650
2023-04-26T01:06:36.187Z,94.0256
2023-04-26T01:07:38.426Z,94.0244
2023-04-26T01:08:40.706Z,94.1345
2023-04-26T01:09:43.033Z,94.1535
2023-04-26T01:10:45.309Z,94.0992
2023-04-26T01:11:47.529Z,93.9874
2023-04-26T01:12:49.752Z,94.0960
2023-04-26T01:13:51.945Z,94.1560
2023-04-26T01:14:54.190Z,94.1552
2023-04-26T01:15:56.454Z,94.2224
2023-04-26T01:16:58.711Z,94.1508
2023-04-26T01:18:01.087Z,94.0360
2023-04-26T01:19:03.368Z,94.2651
2023-04-26T01:20:06.738Z,94.1987
2023-04-26T01:21:06.529Z,94.3554
2023-04-26T01:22:08.777Z,94.4132
2023-04-26T01:23:10.999Z,94.4446
2023-04-26T01:24:13.298Z,94.4896
2023-04-26T01:25:15.557Z,94.6545
2023-04-26T01:26:17.796Z,94.7338
2023-04-26T01:27:20.029Z,94.6665
2023-04-26T01:28:22.334Z,94.6870
2023-04-26T01:29:24.562Z,94.8664
2023-04-26T01:30:26.770Z,95.0152
2023-04-26T01:31:29.495Z,95.0828
2023-04-26T01:32:29.342Z,94.9146
2023-04-26T01:33:31.533Z,95.0143
2023-04-26T01:34:33.739Z,94.9799
2023-04-26T01:35:35.984Z,95.1459
2023-04-26T01:36:38.238Z,95.1185
2023-04-26T01:37:40.486Z,95.1623
2023-04-26T01:38:42.711Z,95.0890
2023-04-26T01:39:45.018Z,94.9952
2023-04-26T01:40:47.217Z,94.8755
2023-04-26T01:41:49.445Z,94.8140
2023-04-26T01:42:51.748Z,94.8025
2023-04-26T01:43:54.097Z,94.8362
2023-04-26T01:44:56.418Z,94.7879
2023-04-26T01:45:58.764Z,94.7837
2023-04-26T01:47:01.113Z,94.7917
2023-04-26T01:48:03.535Z,94.9035
2023-04-26T01:49:03.399Z,94.9456
2023-04-26T01:50:05.706Z,94.8684
2023-04-26T01:51:08.024Z,94.8990
2023-04-26T01:52:10.362Z,94.8939
2023-04-26T01:53:12.611Z,95.0589
2023-04-26T01:54:14.909Z,95.0376
2023-04-26T01:55:17.224Z,95.0986
2023-04-26T01:56:19.498Z,95.1121
2023-04-26T01:57:21.747Z,95.0631
2023-04-26T01:58:24.057Z,94.8660
2023-04-26T01:59:26.356Z,94.8338
2023-04-26T02:00:28.708Z,95.0343
2023-04-26T02:01:31.033Z,94.9482
2023-04-26T02:02:33.409Z,95.0260
2023-04-26T02:03:35.929Z,95.4029
2023-04-26T02:04:35.802Z,95.4492
2023-04-26T02:05:38.091Z,95.3436
2023-04-26T02:06:40.339Z,95.2588
2023-04-26T02:07:42.647Z,95.2762
2023-04-26T02:08:44.937Z,95.2554
2023-04-26T02:09:47.321Z,95.3251
2023-04-26T02:10:49.627Z,95.5250
2023-04-26T02:11:51.908Z,95.6860
2023-04-26T02:12:54.235Z,95.6482
2023-04-26T02:13:56.549Z,95.6257
2023-04-26T02:14:58.836Z,95.5605
2023-04-26T02:16:01.230Z,95.5397
2023-04-26T02:17:03.521Z,95.5908
2023-04-26T02:18:05.968Z,95.6247
2023-04-26T02:19:08.265Z,95.5562
2023-04-26T02:20:10.632Z,95.5689
2023-04-26T02:21:12.994Z,95.6923
2023-04-26T02:22:15.323Z,95.6446
2023-04-26T02:23:17.666Z,95.6627
2023-04-26T02:24:19.959Z,95.6570
2023-04-26T02:25:22.272Z,95.6591
2023-04-26T02:26:24.612Z,95.4820
2023-04-26T02:27:26.879Z,95.4542
2023-04-26T02:28:29.178Z,95.4929
2023-04-26T02:29:44.268Z,95.4705
2023-04-26T02:30:33.501Z,95.4870
2023-04-26T02:31:35.900Z,95.5224
2023-04-26T02:32:38.241Z,95.5721
2023-04-26T02:33:40.509Z,95.7924
2023-04-26T02:34:42.790Z,95.8071
2023-04-26T02:35:46.140Z,95.9292
2023-04-26T02:36:46.027Z,95.9646
2023-04-26T02:37:48.359Z,96.1134
2023-04-26T02:38:51.246Z,96.1356
2023-04-26T02:39:51.164Z,95.9707
2023-04-26T02:40:51.332Z,95.9922
2023-04-26T02:41:53.623Z,96.0492
2023-04-26T02:42:55.941Z,96.0643
2023-04-26T02:43:58.240Z,96.0921
2023-04-26T02:45:00.544Z,96.0474
2023-04-26T02:46:02.869Z,96.0583
2023-04-26T02:47:05.315Z,96.1610
2023-04-26T02:48:07.690Z,96.1700
2023-04-26T02:49:09.947Z,96.1669
2023-04-26T02:50:12.292Z,96.1429
2023-04-26T02:51:14.608Z,96.2311
2023-04-26T02:52:16.884Z,96.3897
2023-04-26T02:53:19.306Z,96.3783
2023-04-26T02:54:21.618Z,96.4012
2023-04-26T02:55:23.922Z,96.4193
2023-04-26T02:56:26.204Z,96.4211
2023-04-26T02:57:28.525Z,96.2778
2023-04-26T02:58:30.909Z,96.2752
2023-04-26T02:59:33.189Z,96.2114
2023-04-26T03:00:35.565Z,96.1109
2023-04-26T03:01:38.019Z,96.2005
2023-04-26T03:02:38.586Z,96.1751
2023-04-26T03:03:38.709Z,96.2429
2023-04-26T03:04:38.668Z,96.3975
2023-04-26T03:05:40.973Z,96.5233
2023-04-26T03:06:43.293Z,96.6257
2023-04-26T03:07:45.552Z,96.7222
2023-04-26T03:08:47.895Z,96.8317
2023-04-26T03:09:50.214Z,96.8691
2023-04-26T03:10:52.511Z,96.9863
2023-04-26T03:11:54.816Z,97.0540
2023-04-26T03:12:57.111Z,97.0739
2023-04-26T03:13:59.420Z,97.1082
2023-04-26T03:15:01.821Z,97.1544
2023-04-26T03:16:04.176Z,97.1685
2023-04-26T03:17:06.489Z,97.1253
2023-04-26T03:18:08.987Z,97.1489
2023-04-26T03:19:08.836Z,97.1510
2023-04-26T03:20:11.222Z,97.2179
2023-04-26T03:21:13.516Z,97.2125
2023-04-26T03:22:15.821Z,97.2069
2023-04-26T03:23:18.119Z,97.2858
2023-04-26T03:24:20.407Z,97.2705
2023-04-26T03:25:22.672Z,97.2641
2023-04-26T03:26:25.047Z,97.3100
2023-04-26T03:27:27.290Z,97.3583
2023-04-26T03:28:29.587Z,97.3439
2023-04-26T03:29:31.898Z,97.3236
2023-04-26T03:30:34.197Z,97.3930
2023-04-26T03:31:36.577Z,97.4336
2023-04-26T03:32:38.997Z,97.3871
2023-04-26T03:33:41.240Z,97.3537
2023-04-26T03:34:43.530Z,97.3657
2023-04-26T03:35:45.805Z,97.3859
2023-04-26T03:36:48.149Z,97.3853
2023-04-26T03:37:53.637Z,97.3850
2023-04-26T03:38:52.837Z,97.3896
2023-04-26T03:39:52.927Z,97.4025
2023-04-26T03:40:55.258Z,97.4159
2023-04-26T03:41:57.629Z,97.4287
2023-04-26T03:42:59.927Z,97.3260
2023-04-26T03:44:02.280Z,97.3051
2023-04-26T03:45:04.568Z,97.3728
2023-04-26T03:46:07.095Z,97.4342
2023-04-26T03:47:06.971Z,97.4343
2023-04-26T03:48:09.405Z,97.4322
2023-04-26T03:49:11.677Z,97.4101
2023-04-26T03:50:13.988Z,97.4399
2023-04-26T03:51:16.294Z,97.5138
2023-04-26T03:52:18.611Z,97.4879
2023-04-26T03:53:20.927Z,97.5222
2023-04-26T03:54:24.255Z,97.5640
2023-04-26T03:55:24.109Z,97.5293
2023-04-26T03:56:26.466Z,97.5598
2023-04-26T03:57:28.813Z,97.5663
2023-04-26T03:58:31.152Z,97.4509
2023-04-26T03:59:33.425Z,97.4680
2023-04-26T04:00:35.731Z,97.5368
2023-04-26T04:01:38.112Z,97.5998
2023-04-26T04:02:40.630Z,97.5812
2023-04-26T04:03:42.330Z,97.6097
2023-04-26T04:04:43.196Z,97.7131
2023-04-26T04:05:43.443Z,97.7261
2023-04-26T04:06:43.317Z,97.7398
2023-04-26T04:07:45.622Z,97.7249
2023-04-26T04:08:48.024Z,97.7163
2023-04-26T04:09:50.313Z,97.7519
2023-04-26T04:10:52.625Z,97.7769
2023-04-26T04:11:54.939Z,97.8051
2023-04-26T04:12:57.274Z,97.8029
2023-04-26T04:13:59.631Z,97.8695
2023-04-26T04:15:02.050Z,97.8720
2023-04-26T04:16:04.529Z,97.8939
2023-04-26T04:17:04.419Z,97.9627
2023-04-26T04:18:06.905Z,97.9395
2023-04-26T04:19:06.717Z,97.9267
2023-04-26T04:20:08.979Z,97.9539
2023-04-26T04:21:11.339Z,97.9798
2023-04-26T04:22:13.750Z,98.0060
2023-04-26T04:23:16.036Z,97.9945
2023-04-26T04:24:18.421Z,98.0166
2023-04-26T04:25:20.740Z,97.9942
2023-04-26T04:26:23.150Z,97.9582
2023-04-26T04:27:25.476Z,97.9341
2023-04-26T04:28:27.824Z,97.9465
2023-04-26T04:29:30.133Z,97.9656
2023-04-26T04:30:32.519Z,97.9479
2023-04-26T04:31:34.856Z,97.8446
2023-04-26T04:32:37.283Z,97.7924
2023-04-26T04:33:39.822Z,97.7881
2023-04-26T04:34:39.642Z,97.8644
2023-04-26T04:35:41.971Z,97.8588
2023-04-26T04:36:44.339Z,97.8774
2023-04-26T04:37:46.638Z,97.8076
2023-04-26T04:38:48.986Z,97.8347
2023-04-26T04:39:51.294Z,97.7907
2023-04-26T04:40:54.680Z,97.7045
2023-04-26T04:41:54.515Z,97.6890
2023-04-26T04:42:56.904Z,97.6621
2023-04-26T04:43:59.217Z,97.4650
2023-04-26T04:45:01.488Z,97.3767
2023-04-26T04:46:03.950Z,97.2685
2023-04-26T04:47:05.845Z,97.2495
2023-04-26T04:48:08.437Z,97.2614
2023-04-26T04:49:08.269Z,97.1849
2023-04-26T04:50:10.627Z,96.9930
2023-04-26T04:51:12.929Z,96.8964
2023-04-26T04:52:19.169Z,96.9313
2023-04-26T04:53:16.793Z,96.9432
2023-04-26T04:54:19.065Z,96.9185
2023-04-26T04:55:21.374Z,96.8332
2023-04-26T04:56:23.682Z,96.9610
2023-04-26T04:57:26.019Z,96.9609
2023-04-26T04:58:28.340Z,96.9339
2023-04-26T04:59:30.638Z,96.8529
2023-04-26T05:00:33.005Z,96.7515
2023-04-26T05:01:35.412Z,96.7320
2023-04-26T05:02:38.276Z,96.8666
2023-04-26T05:03:38.543Z,96.7342
2023-04-26T05:04:39.258Z,96.5608
2023-04-26T05:05:39.392Z,96.5393
2023-04-26T05:06:41.708Z,96.6076
2023-04-26T05:07:44.059Z,96.6660
2023-04-26T05:08:46.371Z,96.6477
2023-04-26T05:09:48.655Z,96.5421
2023-04-26T05:10:50.910Z,96.5223
2023-04-26T05:11:53.297Z,96.5351
2023-04-26T05:12:55.729Z,96.4721
2023-04-26T05:13:56.447Z,96.3029
2023-04-26T05:14:56.429Z,96.2091
2023-04-26T05:15:58.797Z,96.1366
2023-04-26T05:17:01.046Z,96.2154
2023-04-26T05:18:03.451Z,96.2125
2023-04-26T05:19:09.848Z,96.1000
2023-04-26T05:20:07.334Z,96.0769
2023-04-26T05:21:09.576Z,95.9298
2023-04-26T05:22:11.869Z,95.8133
2023-04-26T05:23:14.242Z,95.8376
2023-04-26T05:24:16.520Z,95.8691
2023-04-26T05:25:22.657Z,95.8875
2023-04-26T05:26:20.256Z,95.6369
2023-04-26T05:27:22.545Z,95.6110
2023-04-26T05:28:24.784Z,95.4909
2023-04-26T05:29:27.041Z,95.4636
2023-04-26T05:30:29.536Z,95.7615
2023-04-26T05:31:29.572Z,95.7698
2023-04-26T05:32:31.848Z,95.6431
2023-04-26T05:33:34.089Z,95.3657
2023-04-26T05:34:36.401Z,95.3552
2023-04-26T05:35:38.659Z,95.4739
2023-04-26T05:36:40.993Z,95.7671
2023-04-26T05:37:43.272Z,95.4453
2023-04-26T05:38:45.541Z,95.0842
2023-04-26T05:39:47.838Z,95.1827
2023-04-26T05:40:50.110Z,95.5796
2023-04-26T05:41:52.396Z,95.7334
2023-04-26T05:42:54.680Z,95.6130
2023-04-26T05:43:58.000Z,95.4661
2023-04-26T05:44:57.800Z,95.5634
2023-04-26T05:46:00.172Z,95.7145
2023-04-26T05:47:01.099Z,95.4827
2023-04-26T05:48:03.511Z,95.3898
2023-04-26T05:49:05.745Z,95.3716
2023-04-26T05:50:08.029Z,95.3875
2023-04-26T05:51:10.299Z,95.4032
2023-04-26T05:52:12.595Z,95.3710
2023-04-26T05:53:14.890Z,95.4314
2023-04-26T05:54:17.239Z,95.5736
2023-04-26T05:55:19.541Z,95.1237
2023-04-26T05:56:21.906Z,94.7948
2023-04-26T05:57:24.271Z,94.5928
2023-04-26T05:58:26.536Z,94.5210
2023-04-26T05:59:28.761Z,94.4788
2023-04-26T06:00:31.029Z,94.3645
2023-04-26T06:01:33.312Z,94.6114
2023-04-26T06:02:35.814Z,94.8358
2023-04-26T06:03:36.312Z,94.5341
2023-04-26T06:04:37.069Z,94.2341
2023-04-26T06:05:37.049Z,94.2502
2023-04-26T06:06:39.291Z,93.7392
2023-04-26T06:07:41.510Z,94.0578
2023-04-26T06:08:43.827Z,94.0893
2023-04-26T06:09:46.078Z,94.3705
2023-04-26T06:10:48.367Z,94.4746
2023-04-26T06:11:50.716Z,94.5200
2023-04-26T06:12:52.946Z,94.6948
2023-04-26T06:13:55.705Z,94.7267
2023-04-26T06:14:55.487Z,94.6284
2023-04-26T06:15:57.786Z,94.4477
2023-04-26T06:17:00.163Z,94.6400
2023-04-26T06:18:02.450Z,94.0468
2023-04-26T06:19:04.712Z,93.3214
2023-04-26T06:20:06.955Z,93.5508
2023-04-26T06:21:09.272Z,93.3661
2023-04-26T06:22:11.461Z,93.0630
2023-04-26T06:23:13.786Z,92.6186
2023-04-26T06:24:16.065Z,92.3578
2023-04-26T06:25:18.346Z,92.1406
2023-04-26T06:26:20.652Z,91.8379
2023-04-26T06:27:22.911Z,92.2639
2023-04-26T06:28:25.244Z,92.3437
2023-04-26T06:29:27.459Z,92.3746
2023-04-26T06:30:29.791Z,92.3870
2023-04-26T06:31:32.386Z,92.0323
2023-04-26T06:32:32.630Z,92.2022
2023-04-26T06:33:35.011Z,92.6375
2023-04-26T06:34:37.269Z,93.1926
2023-04-26T06:35:39.610Z,92.8308
2023-04-26T06:36:41.852Z,92.2978
2023-04-26T06:37:44.281Z,91.7416
2023-04-26T06:38:44.099Z,91.9594
2023-04-26T06:39:46.316Z,91.6781
2023-04-26T06:40:48.570Z,91.6164
2023-04-26T06:41:53.051Z,91.6957
2023-04-26T06:42:52.829Z,91.2718
2023-04-26T06:43:55.726Z,91.5848
2023-04-26T06:44:55.549Z,91.0342
2023-04-26T06:45:57.918Z,90.9591
2023-04-26T06:47:00.220Z,90.8632
2023-04-26T06:48:02.593Z,91.0578
2023-04-26T06:49:05.015Z,90.7382
2023-04-26T06:50:04.862Z,90.6667
2023-04-26T06:51:07.145Z,90.6676
2023-04-26T06:52:10.044Z,90.5312
2023-04-26T06:53:09.858Z,91.0423
2023-04-26T06:54:12.206Z,90.9988
2023-04-26T06:55:14.634Z,91.0635
2023-04-26T06:56:14.799Z,91.6906
2023-04-26T06:57:14.711Z,91.3793
2023-04-26T06:58:17.068Z,91.6352
2023-04-26T06:59:19.401Z,91.7055
2023-04-26T07:00:21.732Z,91.6328
2023-04-26T07:01:24.059Z,91.7009
2023-04-26T07:02:26.812Z,91.1856
2023-04-26T07:03:27.054Z,91.2919
2023-04-26T07:04:27.727Z,91.0400
2023-04-26T07:05:27.933Z,91.0637
2023-04-26T07:06:30.246Z,90.8427
2023-04-26T07:07:32.520Z,91.0223
2023-04-26T07:08:34.841Z,90.5024
2023-04-26T07:09:37.143Z,90.4181
2023-04-26T07:10:39.451Z,90.2982
2023-04-26T07:11:41.740Z,90.3294
2023-04-26T07:12:44.005Z,90.1510
2023-04-26T07:13:46.351Z,89.6656
2023-04-26T07:14:48.611Z,89.3601
2023-04-26T07:15:50.963Z,88.9628
2023-04-26T07:16:53.241Z,89.5193
2023-04-26T07:17:55.599Z,89.7332
2023-04-26T07:18:57.897Z,89.7161
2023-04-26T07:20:00.286Z,89.6739
2023-04-26T07:21:01.168Z,89.8645
2023-04-26T07:22:01.001Z,89.7966
2023-04-26T07:23:01.133Z,89.4703
2023-04-26T07:24:01.233Z,89.7458
2023-04-26T07:25:03.558Z,89.6450
2023-04-26T07:26:06.137Z,89.9908
2023-04-26T07:27:05.912Z,90.0195
2023-04-26T07:28:08.202Z,89.5883
2023-04-26T07:29:10.475Z,89.3332
2023-04-26T07:30:12.763Z,88.8280
2023-04-26T07:31:15.085Z,88.7725
2023-04-26T07:32:17.449Z,88.4965
2023-04-26T07:33:20.171Z,88.4247
2023-04-26T07:34:20.036Z,87.7861
2023-04-26T07:35:22.293Z,87.8975
2023-04-26T07:36:25.760Z,87.8333
2023-04-26T07:37:25.549Z,87.8686
2023-04-26T07:38:27.776Z,87.5279
2023-04-26T07:39:27.808Z,88.1832
2023-04-26T07:40:27.753Z,88.5109
2023-04-26T07:41:27.768Z,88.1642
2023-04-26T07:42:30.016Z,87.5449
2023-04-26T07:43:32.609Z,87.4957
2023-04-26T07:44:32.402Z,87.5927
2023-04-26T07:45:34.816Z,87.6940
2023-04-26T07:46:37.053Z,87.1162
2023-04-26T07:47:39.447Z,87.1044
2023-04-26T07:48:41.700Z,87.4328
2023-04-26T07:49:47.919Z,87.4268
2023-04-26T07:50:45.470Z,86.7343
2023-04-26T07:51:47.709Z,86.9206
2023-04-26T07:52:50.075Z,86.8554
2023-04-26T07:53:52.869Z,87.0632
2023-04-26T07:54:53.017Z,87.3026
2023-04-26T07:55:55.302Z,87.3336
2023-04-26T07:56:57.668Z,87.2248
2023-04-26T07:57:59.918Z,87.1219
2023-04-26T07:59:02.389Z,86.9041
2023-04-26T08:00:02.267Z,87.0773
2023-04-26T08:01:04.511Z,86.5370
2023-04-26T08:02:07.048Z,86.8697
2023-04-26T08:03:07.432Z,86.6474
2023-04-26T08:04:08.005Z,85.4264
2023-04-26T08:05:08.470Z,84.5094
2023-04-26T08:06:08.369Z,84.3967
2023-04-26T08:07:08.208Z,85.3115
2023-04-26T08:08:10.556Z,85.6171
2023-04-26T08:09:12.908Z,86.3057
2023-04-26T08:10:15.201Z,86.1935
2023-04-26T08:11:17.480Z,86.1670
2023-04-26T08:12:19.739Z,85.9367
2023-04-26T08:13:22.048Z,85.8012
2023-04-26T08:14:24.373Z,85.6310
2023-04-26T08:15:26.690Z,85.5698
2023-04-26T08:16:28.992Z,85.6775
2023-04-26T08:17:31.373Z,85.1051
2023-04-26T08:18:33.634Z,84.4756
2023-04-26T08:19:35.979Z,84.0156
2023-04-26T08:20:37.408Z,83.9556
2023-04-26T08:21:41.214Z,83.5712
2023-04-26T08:22:45.007Z,83.1084
2023-04-26T08:23:45.519Z,82.9983
2023-04-26T08:24:47.833Z,83.4439
2023-04-26T08:25:50.134Z,83.9250
2023-04-26T08:26:52.417Z,84.2931
2023-04-26T08:27:54.703Z,84.9241
2023-04-26T08:28:57.065Z,86.1546
2023-04-26T08:29:59.512Z,85.3436
2023-04-26T08:30:59.427Z,84.7843
2023-04-26T08:32:01.720Z,84.4373
2023-04-26T08:33:04.239Z,84.2894
2023-04-26T08:34:04.096Z,83.8732
2023-04-26T08:35:06.435Z,83.7852
2023-04-26T08:36:08.724Z,84.1619
2023-04-26T08:37:11.005Z,84.0724
2023-04-26T08:38:13.326Z,84.1824
2023-04-26T08:39:15.569Z,84.2690
2023-04-26T08:40:17.903Z,83.8016
2023-04-26T08:41:20.255Z,83.2351
2023-04-26T08:42:22.556Z,83.1692
2023-04-26T08:43:24.843Z,83.1340
2023-04-26T08:44:28.308Z,82.8841
2023-04-26T08:45:28.206Z,82.9243
2023-04-26T08:46:30.641Z,83.2153
2023-04-26T08:47:30.473Z,83.1500
2023-04-26T08:48:32.856Z,82.8180
2023-04-26T08:49:35.084Z,82.8260
2023-04-26T08:50:37.429Z,82.9215
2023-04-26T08:51:39.778Z,82.6129
2023-04-26T08:52:42.083Z,82.5281
2023-04-26T08:53:44.369Z,82.1335
2023-04-26T08:54:46.737Z,81.8737
2023-04-26T08:55:49.039Z,82.1377
2023-04-26T08:56:51.302Z,81.9621
2023-04-26T08:57:53.610Z,81.4929
2023-04-26T08:58:55.912Z,82.0963
2023-04-26T08:59:58.241Z,82.5873
2023-04-26T09:01:00.571Z,82.4137
2023-04-26T09:02:03.386Z,82.7455
2023-04-26T09:03:03.574Z,82.7343
2023-04-26T09:04:04.848Z,82.3187
2023-04-26T09:05:05.516Z,82.3297
2023-04-26T09:06:05.419Z,81.8573
2023-04-26T09:07:07.737Z,81.7460
2023-04-26T09:08:10.036Z,81.6090
2023-04-26T09:09:12.361Z,81.1926
2023-04-26T09:10:14.672Z,80.5651
2023-04-26T09:11:16.948Z,80.9240
2023-04-26T09:12:19.241Z,81.1439
2023-04-26T09:13:21.572Z,80.9202
2023-04-26T09:14:23.887Z,80.7003
2023-04-26T09:15:27.233Z,80.7270
2023-04-26T09:16:27.193Z,80.4773
2023-04-26T09:17:27.148Z,80.1708
2023-04-26T09:18:26.911Z,80.0081
2023-04-26T09:19:29.326Z,79.6973
2023-04-26T09:20:29.136Z,79.1301
2023-04-26T09:21:31.430Z,78.5363
2023-04-26T09:22:33.741Z,78.7458
2023-04-26T09:23:36.016Z,78.7177
2023-04-26T09:24:38.261Z,78.8655
2023-04-26T09:25:40.510Z,78.3586
2023-04-26T09:26:42.772Z,78.5306
2023-04-26T09:27:45.528Z,78.6658
2023-04-26T09:28:45.571Z,78.5155
2023-04-26T09:29:45.502Z,77.9312
2023-04-26T09:30:45.526Z,78.6528
2023-04-26T09:31:50.270Z,79.2040
2023-04-26T09:32:45.692Z,78.8518
2023-04-26T09:33:45.493Z,78.1387
2023-04-26T09:34:47.792Z,77.3996
2023-04-26T09:35:50.049Z,76.6718
2023-04-26T09:36:52.282Z,75.1020
2023-04-26T09:38:04.020Z,74.0583
2023-04-26T09:38:56.195Z,75.6896
2023-04-26T09:39:58.427Z,76.3738
2023-04-26T09:40:58.480Z,76.4817
2023-04-26T09:41:58.847Z,76.7763
2023-04-26T09:43:01.083Z,76.2215
2023-04-26T09:44:03.289Z,76.0405
2023-04-26T09:45:05.543Z,76.1265
2023-04-26T09:46:07.734Z,75.9426
2023-04-26T09:47:10.256Z,76.4171
2023-04-26T09:48:11.120Z,75.4182
2023-04-26T09:49:10.841Z,75.5986
2023-04-26T09:50:13.069Z,75.1077
2023-04-26T09:51:15.249Z,75.7346
2023-04-26T09:52:17.404Z,76.2234
2023-04-26T09:53:19.597Z,75.4647
2023-04-26T09:54:21.787Z,75.5010
2023-04-26T09:55:34.825Z,75.9532
2023-04-26T09:56:25.793Z,76.7067
2023-04-26T09:57:28.033Z,77.2627
2023-04-26T09:58:30.285Z,76.5854
2023-04-26T09:59:32.526Z,76.7797
2023-04-26T10:00:34.773Z,75.9850
2023-04-26T10:01:37.184Z,75.9889
2023-04-26T10:02:37.072Z,76.1243
2023-04-26T10:03:37.714Z,76.4794
2023-04-26T10:04:38.068Z,75.3319
2023-04-26T10:05:37.862Z,74.9767
2023-04-26T10:06:40.162Z,75.7516
2023-04-26T10:07:42.346Z,75.5062
2023-04-26T10:08:44.676Z,74.7493
2023-04-26T10:09:44.483Z,74.4066
2023-04-26T10:10:46.699Z,74.7925
2023-04-26T10:11:48.937Z,73.9068
2023-04-26T10:12:51.231Z,74.9237
2023-04-26T10:13:53.449Z,75.2913
2023-04-26T10:14:55.652Z,74.8221
2023-04-26T10:15:58.013Z,73.8511
2023-04-26T10:17:00.443Z,73.9956
2023-04-26T10:18:00.353Z,73.8043
2023-04-26T10:19:00.224Z,73.8994
2023-04-26T10:20:02.576Z,74.2082
2023-04-26T10:21:02.378Z,74.2783
2023-04-26T10:22:04.574Z,73.9092
2023-04-26T10:23:06.839Z,73.0108
2023-04-26T10:24:09.106Z,72.1986
2023-04-26T10:25:11.393Z,72.2330
2023-04-26T10:26:14.544Z,72.2275
2023-04-26T10:27:14.263Z,71.8597
2023-04-26T10:28:16.547Z,71.4600
2023-04-26T10:29:18.747Z,70.8336
2023-04-26T10:30:21.045Z,71.6598
2023-04-26T10:31:23.286Z,72.0483
2023-04-26T10:32:25.538Z,71.8177
2023-04-26T10:33:27.855Z,70.6747
2023-04-26T10:34:27.612Z,69.9246
2023-04-26T10:35:29.911Z,69.9947
2023-04-26T10:36:32.128Z,69.6687
2023-04-26T10:37:34.299Z,69.2417
2023-04-26T10:38:36.516Z,68.8140
2023-04-26T10:39:38.716Z,68.1230
2023-04-26T10:40:41.019Z,67.3254
2023-04-26T10:41:43.189Z,66.3755
2023-04-26T10:42:45.379Z,65.3047
2023-04-26T10:43:47.582Z,64.6677
2023-04-26T10:44:49.720Z,65.1524
2023-04-26T10:45:52.548Z,65.3189
2023-04-26T10:46:52.277Z,65.6493
2023-04-26T10:47:54.505Z,65.9591
2023-04-26T10:48:56.636Z,66.0697
2023-04-26T10:49:58.840Z,66.7461
2023-04-26T10:51:01.094Z,65.6292
2023-04-26T10:52:03.293Z,66.0077
2023-04-26T10:53:05.480Z,64.8792
2023-04-26T10:54:07.650Z,64.0533
2023-04-26T10:55:09.850Z,63.4507
2023-04-26T10:56:12.063Z,63.6936
2023-04-26T10:57:14.257Z,63.0118
2023-04-26T10:58:16.482Z,64.1546
2023-04-26T10:59:39.912Z,64.2493
2023-04-26T11:00:18.027Z,62.8797
2023-04-26T11:01:20.193Z,61.8013
2023-04-26T11:02:22.449Z,60.7695
2023-04-26T11:03:24.928Z,62.0605
2023-04-26T11:04:25.265Z,61.8516
2023-04-26T11:05:25.859Z,61.0917
2023-04-26T11:06:25.593Z,60.5273
2023-04-26T11:07:27.780Z,59.0558
2023-04-26T11:08:30.083Z,57.6356
2023-04-26T11:09:29.890Z,56.6464
2023-04-26T11:10:32.080Z,55.8478
2023-04-26T11:11:34.262Z,56.6611
2023-04-26T11:12:36.468Z,60.4000
2023-04-26T11:13:38.680Z,61.8375
2023-04-26T11:14:40.841Z,60.3698
2023-04-26T11:15:43.095Z,59.2022
2023-04-26T11:16:45.512Z,59.7111
2023-04-26T11:17:45.296Z,60.6292
2023-04-26T11:18:47.559Z,61.2291
2023-04-26T11:19:49.749Z,61.0000
2023-04-26T11:20:52.030Z,60.8687
2023-04-26T11:21:56.751Z,60.6566
2023-04-26T11:22:56.498Z,60.9923
2023-04-26T11:23:58.699Z,60.7003
2023-04-26T11:25:01.096Z,59.4216
2023-04-26T11:26:00.871Z,57.3479
2023-04-26T11:27:04.083Z,57.0865
2023-04-26T11:28:03.799Z,57.0904
2023-04-26T11:29:06.055Z,56.1449
2023-04-26T11:30:05.858Z,56.0623
2023-04-26T11:31:05.955Z,56.4141
2023-04-26T11:32:05.797Z,56.2846
2023-04-26T11:33:08.144Z,56.8698
2023-04-26T11:34:07.913Z,56.1517
2023-04-26T11:35:10.158Z,56.7429
2023-04-26T11:36:12.361Z,55.5118
2023-04-26T11:37:14.583Z,54.9649
2023-04-26T11:38:16.763Z,53.3156
2023-04-26T11:39:18.968Z,52.0791
2023-04-26T11:40:21.153Z,52.3832
2023-04-26T11:41:23.335Z,52.1254
2023-04-26T11:42:23.266Z,52.6949
2023-04-26T11:43:24.009Z,53.5970
2023-04-26T11:44:26.150Z,54.0780
2023-04-26T11:45:28.329Z,54.7132
2023-04-26T11:46:28.182Z,54.4898
2023-04-26T11:47:28.623Z,54.7438
2023-04-26T11:48:28.359Z,55.0034
2023-04-26T11:49:30.503Z,54.1961
2023-04-26T11:50:32.669Z,54.8004
2023-04-26T11:51:34.923Z,54.3811
2023-04-26T11:52:37.142Z,54.2055
2023-04-26T11:53:39.360Z,54.5223
2023-04-26T11:54:41.524Z,54.8594
2023-04-26T11:55:43.750Z,55.3135
2023-04-26T11:56:46.013Z,54.6853
2023-04-26T11:57:48.180Z,54.6414
2023-04-26T11:58:51.395Z,55.3469
2023-04-26T11:59:51.318Z,54.6328
2023-04-26T12:00:53.508Z,54.7660
2023-04-26T12:01:55.778Z,54.2467
2023-04-26T12:02:58.478Z,53.6159
2023-04-26T12:03:58.807Z,54.1077
2023-04-26T12:04:59.826Z,53.1704
2023-04-26T12:05:59.669Z,51.7831
2023-04-26T12:07:01.870Z,52.2210
2023-04-26T12:08:04.033Z,52.5875
2023-04-26T12:09:06.317Z,54.4837
2023-04-26T12:10:06.018Z,54.1193
2023-04-26T12:11:08.229Z,52.3831
2023-04-26T12:12:10.419Z,52.3082
2023-04-26T12:13:12.576Z,52.2199
2023-04-26T12:14:14.772Z,52.3004
2023-04-26T12:15:15.933Z,52.6740
2023-04-26T12:16:26.778Z,52.8232
2023-04-26T12:17:17.754Z,53.7675
2023-04-26T12:18:18.284Z,53.8932
2023-04-26T12:19:18.012Z,52.7222
2023-04-26T12:20:20.219Z,52.9035
2023-04-26T12:21:22.451Z,52.7899
2023-04-26T12:22:24.649Z,53.1569
2023-04-26T12:23:26.818Z,53.2811
2023-04-26T12:24:26.594Z,52.5981
2023-04-26T12:25:28.801Z,52.3243
2023-04-26T12:26:31.024Z,53.1821
2023-04-26T12:27:30.775Z,52.8960
2023-04-26T12:28:32.997Z,52.7588